Time;durP1;ratioP1;P1;durP2;ratioP2;P2;SDS_P1;SDS_P2;PMS_P1;PMS_P2;Temp;Humidity;BMP_temperature;BMP_pressure;BME280_temperature;BME280_humidity;BME280_pressure;Samples;Min_cycle;Max_cycle;Signal;HPM_P1;HPM_P2
2023/02/25 00:01:26;;;;;;;12.30;3.53;;;;;;;6.38;66.85;99218.69;5106135;28;20048;-74
2023/02/25 00:03:56;;;;;;;9.45;3.33;;;;;;;6.40;66.92;99217.22;5109333;28;20059;-76
2023/02/25 00:06:25;;;;;;;8.45;3.00;;;;;;;6.45;66.10;99216.28;5106265;28;20067;-76
2023/02/25 00:08:53;;;;;;;12.40;3.63;;;;;;;6.42;65.89;99219.69;5089592;28;20044;-75
2023/02/25 00:11:21;;;;;;;12.82;3.10;;;;;;;6.41;66.07;99229.13;5088488;28;20048;-75
2023/02/25 00:13:48;;;;;;;11.90;3.40;;;;;;;6.44;66.27;99220.19;5088374;28;20052;-76
2023/02/25 00:16:15;;;;;;;11.13;2.88;;;;;;;6.40;66.31;99222.75;5083326;28;20048;-76
2023/02/25 00:18:45;;;;;;;10.45;3.47;;;;;;;6.42;65.94;99216.91;5098112;28;20048;-76
2023/02/25 00:21:14;;;;;;;13.63;3.00;;;;;;;6.41;65.72;99212.53;5091156;28;20480;-76
2023/02/25 00:23:45;;;;;;;10.93;2.45;;;;;;;6.42;65.66;99214.94;5085108;28;20049;-76
2023/02/25 00:26:12;;;;;;;12.18;2.95;;;;;;;6.36;66.03;99220.94;5090212;28;20398;-75
2023/02/25 00:28:40;;;;;;;13.10;3.08;;;;;;;6.35;65.91;99211.84;5091180;28;20055;-75
2023/02/25 00:31:09;;;;;;;12.88;3.40;;;;;;;6.33;65.72;99222.41;5101262;28;20051;-75
2023/02/25 00:33:40;;;;;;;12.30;3.05;;;;;;;6.34;65.81;99210.22;5083212;28;20052;-76
2023/02/25 00:36:10;;;;;;;10.35;3.08;;;;;;;6.29;66.06;99208.38;5093189;28;20056;-76
2023/02/25 00:38:37;;;;;;;11.85;3.33;;;;;;;6.32;66.09;99214.41;5087781;28;20071;-76
2023/02/25 00:41:10;;;;;;;8.77;3.10;;;;;;;6.34;66.35;99199.16;5090458;28;20044;-76
2023/02/25 00:43:39;;;;;;;14.48;3.97;;;;;;;6.38;66.05;99196.56;5111228;28;20058;-75
2023/02/25 00:46:06;;;;;;;9.98;3.05;;;;;;;6.39;65.45;99200.97;5093468;28;20056;-75
2023/02/25 00:48:33;;;;;;;10.82;2.92;;;;;;;6.39;65.58;99206.50;5102652;28;20411;-75
2023/02/25 00:51:06;;;;;;;8.38;2.75;;;;;;;6.42;65.41;99205.84;5093497;28;20055;-76
2023/02/25 00:53:33;;;;;;;9.77;2.47;;;;;;;6.39;65.01;99204.53;5089543;28;20052;-76
2023/02/25 00:56:01;;;;;;;9.77;3.17;;;;;;;6.41;65.21;99199.50;5094502;28;20052;-76
2023/02/25 00:58:30;;;;;;;8.93;2.55;;;;;;;6.45;65.27;99206.03;5084225;28;20058;-75
2023/02/25 01:00:57;;;;;;;10.48;2.72;;;;;;;6.46;64.95;99210.41;5086634;28;20515;-75
2023/02/25 01:03:24;;;;;;;10.57;2.47;;;;;;;6.50;65.27;99214.19;5105906;28;20052;-76
2023/02/25 01:05:52;;;;;;;11.85;3.50;;;;;;;6.47;64.44;99214.03;5108568;28;20071;-76
2023/02/25 01:08:20;;;;;;;9.73;2.63;;;;;;;6.39;64.69;99207.31;5112695;28;20064;-76
2023/02/25 01:10:48;;;;;;;8.75;2.83;;;;;;;6.46;64.90;99213.19;5113213;28;20048;-76
2023/02/25 01:13:16;;;;;;;11.95;3.20;;;;;;;6.52;64.49;99213.06;5114121;28;20051;-76
2023/02/25 01:15:44;;;;;;;11.45;2.63;;;;;;;6.47;64.36;99203.78;5112532;28;20047;-76
2023/02/25 01:18:11;;;;;;;9.88;3.28;;;;;;;6.48;64.53;99210.91;5112098;28;20055;-76
2023/02/25 01:20:40;;;;;;;13.73;3.03;;;;;;;6.49;65.02;99218.09;5112018;28;20055;-75
2023/02/25 01:23:07;;;;;;;9.63;2.65;;;;;;;6.50;64.52;99211.41;5112799;28;20052;-76
2023/02/25 01:25:38;;;;;;;7.60;2.88;;;;;;;6.59;63.93;99213.41;5110350;28;20056;-75
2023/02/25 01:28:06;;;;;;;13.35;3.33;;;;;;;6.65;64.52;99220.44;5113049;28;20044;-75
2023/02/25 01:30:35;;;;;;;12.93;3.90;;;;;;;6.71;63.92;99216.38;5113581;28;20055;-75
2023/02/25 01:33:03;;;;;;;8.13;3.03;;;;;;;6.67;64.17;99218.97;5112288;28;20511;-75
2023/02/25 01:35:31;;;;;;;12.48;2.88;;;;;;;6.68;64.33;99225.34;5099743;28;20058;-74
2023/02/25 01:37:58;;;;;;;11.00;2.95;;;;;;;6.66;64.13;99228.44;5108056;28;20048;-75
2023/02/25 01:40:25;;;;;;;10.77;3.10;;;;;;;6.72;64.22;99218.03;5108494;28;20063;-75
2023/02/25 01:42:52;;;;;;;8.32;2.47;;;;;;;6.74;64.13;99223.22;5113134;28;20047;-75
2023/02/25 01:45:29;;;;;;;13.35;3.35;;;;;;;6.71;64.84;99219.16;5112482;28;20054;-74
2023/02/25 01:48:07;;;;;;;11.07;2.65;;;;;;;6.80;64.50;99222.75;5114053;28;20058;-75
2023/02/25 01:50:41;;;;;;;10.23;2.78;;;;;;;6.76;64.05;99219.03;5111670;28;20052;-75
2023/02/25 01:53:09;;;;;;;12.73;3.15;;;;;;;6.77;64.07;99217.06;5099899;28;20504;-75
2023/02/25 01:55:40;;;;;;;8.10;2.50;;;;;;;6.78;64.13;99219.50;5111948;28;20526;-75
2023/02/25 01:58:09;;;;;;;15.07;4.15;;;;;;;6.79;63.44;99210.06;5100843;28;20717;-75
2023/02/25 02:00:38;;;;;;;8.90;2.60;;;;;;;6.78;63.53;99219.50;5114980;28;20058;-75
2023/02/25 02:03:14;;;;;;;11.18;3.05;;;;;;;6.80;62.95;99216.41;5112282;28;20052;-75
2023/02/25 02:06:05;;;;;;;10.18;2.83;;;;;;;6.76;63.54;99215.44;5111621;28;20048;-75
2023/02/25 02:08:34;;;;;;;8.32;2.70;;;;;;;6.76;64.29;99215.44;5108784;28;20070;-75
2023/02/25 02:11:01;;;;;;;10.63;3.40;;;;;;;6.73;64.55;99218.84;5113875;28;20047;-75
2023/02/25 02:13:30;;;;;;;11.00;3.45;;;;;;;6.65;64.88;99217.66;5111338;28;20072;-75
2023/02/25 02:16:12;;;;;;;12.47;3.60;;;;;;;6.71;64.41;99222.72;5113472;28;20051;-75
2023/02/25 02:18:48;;;;;;;13.20;3.85;;;;;;;6.68;64.65;99220.63;5109958;28;20050;-75
2023/02/25 02:21:35;;;;;;;11.45;3.70;;;;;;;6.61;64.88;99214.72;5110010;28;20051;-75
2023/02/25 02:24:29;;;;;;;13.98;4.03;;;;;;;6.64;64.91;99214.09;5106301;28;20518;-75
2023/02/25 02:27:01;;;;;;;13.32;4.40;;;;;;;6.61;65.54;99213.91;5112212;28;20055;-75
2023/02/25 02:30:02;;;;;;;13.50;3.75;;;;;;;6.64;65.27;99213.28;5111884;28;20059;-75
2023/02/25 02:32:40;;;;;;;14.13;3.97;;;;;;;6.64;65.70;99216.06;5105902;28;20479;-76
2023/02/25 02:35:19;;;;;;;13.48;3.70;;;;;;;6.64;64.92;99213.28;5112690;28;20048;-75
2023/02/25 02:37:57;;;;;;;12.38;3.33;;;;;;;6.71;64.56;99213.63;5101838;28;20058;-76
2023/02/25 02:40:39;;;;;;;13.07;3.72;;;;;;;6.69;64.63;99207.59;5101866;28;20059;-76
2023/02/25 02:43:11;;;;;;;10.60;2.90;;;;;;;6.63;64.87;99197.81;5113303;28;20050;-74
2023/02/25 02:45:46;;;;;;;10.60;3.22;;;;;;;6.63;65.28;99211.63;5112563;28;20480;-75
2023/02/25 02:48:19;;;;;;;8.93;3.33;;;;;;;6.63;65.10;99211.63;5108282;28;20047;-76
2023/02/25 02:50:52;;;;;;;10.93;3.28;;;;;;;6.62;65.57;99223.84;5112658;28;20142;-75
2023/02/25 02:53:23;;;;;;;10.70;2.72;;;;;;;6.56;64.92;99211.28;5111395;28;20048;-75
2023/02/25 02:55:54;;;;;;;9.57;3.20;;;;;;;6.50;65.97;99219.72;5109951;28;20048;-75
2023/02/25 02:58:28;;;;;;;8.32;2.72;;;;;;;6.54;65.44;99219.91;5109735;28;20396;-75
2023/02/25 03:00:59;;;;;;;13.27;3.53;;;;;;;6.58;66.24;99222.84;5111139;28;20074;-75
2023/02/25 03:03:35;;;;;;;9.13;3.03;;;;;;;6.55;65.58;99218.78;5112806;28;20048;-74
2023/02/25 03:06:07;;;;;;;9.63;3.10;;;;;;;6.53;65.76;99228.50;5109579;28;20062;-75
2023/02/25 03:08:40;;;;;;;11.57;4.65;;;;;;;6.46;66.40;99226.22;5106924;28;20050;-75
2023/02/25 03:11:07;;;;;;;6.95;3.60;;;;;;;6.50;66.28;99225.25;5111703;28;20054;-74
2023/02/25 03:13:34;;;;;;;12.50;4.00;;;;;;;6.53;66.52;99222.97;5109999;28;20050;-75
2023/02/25 03:16:07;;;;;;;13.45;4.03;;;;;;;6.47;66.80;99217.59;5110798;28;20071;-75
2023/02/25 03:18:39;;;;;;;9.93;3.10;;;;;;;6.54;66.66;99216.31;5109650;28;20048;-76
2023/02/25 03:21:13;;;;;;;9.68;3.63;;;;;;;6.55;67.31;99220.72;5111238;28;20480;-76
2023/02/25 03:23:43;;;;;;;12.68;3.72;;;;;;;6.53;67.35;99221.06;5106221;28;20052;-75
2023/02/25 03:26:17;;;;;;;17.90;4.50;;;;;;;6.61;66.98;99230.50;5112181;28;20518;-75
2023/02/25 03:28:45;;;;;;;9.90;3.72;;;;;;;6.60;66.78;99238.00;5108086;28;20059;-75
2023/02/25 03:31:20;;;;;;;10.52;3.22;;;;;;;6.64;66.98;99238.19;5107215;28;20051;-75
2023/02/25 03:33:53;;;;;;;8.50;3.38;;;;;;;6.63;67.49;99239.31;5105834;28;20055;-75
2023/02/25 03:36:24;;;;;;;10.18;3.17;;;;;;;6.60;67.15;99245.50;5112187;28;20058;-75
2023/02/25 03:38:56;;;;;;;12.00;3.65;;;;;;;6.63;67.19;99240.13;5109043;28;20511;-76
2023/02/25 03:41:28;;;;;;;14.38;4.20;;;;;;;6.60;66.91;99246.28;5111943;28;20400;-75
2023/02/25 03:43:58;;;;;;;14.20;3.40;;;;;;;6.61;67.17;99236.84;5111569;28;20054;-76
2023/02/25 03:46:26;;;;;;;;;;;;;;;6.65;67.52;99239.81;5110877;28;20408;-75
2023/02/25 03:48:59;;;;;;;14.88;4.43;;;;;;;6.68;67.17;99236.41;5106243;28;19930;-75
2023/02/25 03:51:33;;;;;;;11.23;3.80;;;;;;;6.66;67.09;99236.72;5106714;28;20056;-75
2023/02/25 03:54:00;;;;;;;11.70;3.65;;;;;;;6.67;67.09;99235.56;5106521;28;20044;-75
2023/02/25 03:56:28;;;;;;;12.27;3.97;;;;;;;6.66;66.92;99241.44;5103026;28;20051;-71
2023/02/25 03:58:55;;;;;;;12.20;3.75;;;;;;;6.68;67.60;99236.41;5110751;28;20040;-70
2023/02/25 04:01:27;;;;;;;11.02;3.83;;;;;;;6.71;67.32;99241.28;5100235;28;20058;-73
2023/02/25 04:03:56;;;;;;;11.07;3.75;;;;;;;6.68;66.97;99248.28;5108291;28;20519;-71
2023/02/25 04:06:25;;;;;;;14.45;4.10;;;;;;;6.72;67.34;99242.94;5108875;28;20052;-70
2023/02/25 04:08:52;;;;;;;15.30;4.50;;;;;;;6.73;66.96;99243.75;5110532;28;20044;-70
2023/02/25 04:11:19;;;;;;;12.73;4.45;;;;;;;6.71;67.00;99257.91;5109300;28;20047;-70
2023/02/25 04:13:46;;;;;;;9.32;3.38;;;;;;;6.75;66.57;99258.91;5108671;28;20408;-70
2023/02/25 04:16:13;;;;;;;13.50;3.60;;;;;;;6.75;66.81;99252.56;5111935;28;20043;-70
2023/02/25 04:18:41;;;;;;;15.98;4.68;;;;;;;6.77;66.10;99259.41;5112213;28;20055;-72
2023/02/25 04:21:25;;;;;;;11.05;4.25;;;;;;;6.79;66.57;99261.84;5095525;28;20422;-70
2023/02/25 04:23:55;;;;;;;10.73;3.67;;;;;;;6.80;66.98;99267.03;5109062;28;20052;-70
2023/02/25 04:26:22;;;;;;;11.65;3.70;;;;;;;6.83;67.26;99269.19;5110321;28;20058;-70
2023/02/25 04:28:50;;;;;;;11.18;3.58;;;;;;;6.83;66.93;99265.63;5103514;28;20059;-69
2023/02/25 04:31:17;;;;;;;13.93;4.25;;;;;;;6.74;66.82;99268.34;5110155;28;20126;-71
2023/02/25 04:33:48;;;;;;;8.25;3.35;;;;;;;6.80;66.57;99258.75;5111188;28;20499;-70
2023/02/25 04:36:30;;;;;;;12.65;4.03;;;;;;;6.79;65.45;99248.81;5112187;28;20052;-71
2023/02/25 04:38:58;;;;;;;11.55;3.20;;;;;;;6.79;66.43;99256.31;5108750;28;20050;-70
2023/02/25 04:41:29;;;;;;;14.20;3.20;;;;;;;6.77;65.23;99264.94;5114827;28;20489;-70
2023/02/25 04:43:57;;;;;;;12.70;3.55;;;;;;;6.55;66.26;99270.50;5111413;28;21166;-70
2023/02/25 04:46:24;;;;;;;14.23;3.97;;;;;;;6.70;66.41;99270.13;5097187;28;20052;-69
2023/02/25 04:48:54;;;;;;;10.35;3.58;;;;;;;6.73;65.66;99276.97;5103367;28;20052;-70
2023/02/25 04:51:21;;;;;;;14.75;3.47;;;;;;;6.74;65.50;99271.13;5105632;28;20051;-70
2023/02/25 04:53:50;;;;;;;12.27;3.33;;;;;;;6.77;66.37;99276.00;5112332;28;20055;-70
2023/02/25 04:56:17;;;;;;;12.70;3.85;;;;;;;6.78;66.17;99276.81;5114607;28;20416;-69
2023/02/25 04:58:45;;;;;;;16.88;4.22;;;;;;;6.79;65.98;99268.19;5113734;28;20480;-70
2023/02/25 05:01:13;;;;;;;12.65;4.20;;;;;;;6.81;65.68;99271.47;5103190;28;20059;-70
2023/02/25 05:03:40;;;;;;;14.23;3.67;;;;;;;6.79;65.42;99273.72;5102503;28;20056;-71
2023/02/25 05:06:09;;;;;;;15.73;3.53;;;;;;;6.83;65.39;99266.44;5101717;28;20423;-70
2023/02/25 05:08:36;;;;;;;16.83;4.03;;;;;;;6.82;65.50;99267.53;5113427;28;20054;-70
2023/02/25 05:11:05;;;;;;;13.98;3.70;;;;;;;6.85;65.55;99275.22;5113246;28;20051;-70
2023/02/25 05:13:33;;;;;;;14.25;3.85;;;;;;;6.83;65.42;99271.16;5109998;28;20050;-72
2023/02/25 05:16:07;;;;;;;11.32;3.33;;;;;;;6.82;65.01;99259.25;5114253;28;20067;-70
2023/02/25 05:18:38;;;;;;;10.25;2.95;;;;;;;6.73;65.59;99263.94;5113132;28;20082;-70
2023/02/25 05:21:12;;;;;;;14.95;3.33;;;;;;;6.77;65.64;99262.16;5111817;28;20052;-69
2023/02/25 05:23:39;;;;;;;12.85;3.38;;;;;;;6.73;65.24;99261.16;5112124;28;20048;-71
2023/02/25 05:26:09;;;;;;;9.88;3.28;;;;;;;6.79;65.33;99262.66;5113498;28;20048;-70
2023/02/25 05:28:36;;;;;;;20.30;3.92;;;;;;;6.79;65.92;99259.91;5106681;28;20044;-71
2023/02/25 05:31:07;;;;;;;17.52;3.95;;;;;;;6.84;65.36;99270.81;5111059;28;20055;-70
2023/02/25 05:33:36;;;;;;;14.25;3.97;;;;;;;6.83;65.68;99266.44;5114238;28;20055;-71
2023/02/25 05:36:06;;;;;;;13.85;3.30;;;;;;;6.76;65.75;99270.78;5112509;28;20048;-70
2023/02/25 05:38:33;;;;;;;11.45;3.10;;;;;;;6.77;65.44;99267.69;5110966;28;20047;-70
2023/02/25 05:41:01;;;;;;;9.07;3.20;;;;;;;6.81;65.62;99265.94;5111719;28;20043;-71
2023/02/25 05:43:29;;;;;;;11.57;3.40;;;;;;;6.85;64.82;99264.16;5109104;28;20051;-70
2023/02/25 05:45:58;;;;;;;13.40;2.92;;;;;;;6.81;65.82;99263.16;5113397;28;20051;-70
2023/02/25 05:48:26;;;;;;;16.23;3.53;;;;;;;6.84;64.68;99265.28;5113399;28;20058;-70
2023/02/25 05:51:01;;;;;;;14.18;3.72;;;;;;;6.81;65.07;99267.88;5111507;28;20047;-72
2023/02/25 05:53:28;;;;;;;11.10;2.80;;;;;;;6.86;65.36;99267.72;5113769;28;20073;-71
2023/02/25 05:55:55;;;;;;;12.30;3.03;;;;;;;6.85;64.48;99274.41;5110860;28;20055;-70
2023/02/25 05:58:23;;;;;;;15.45;3.33;;;;;;;6.85;64.50;99274.41;5107992;28;20063;-71
2023/02/25 06:00:52;;;;;;;16.70;3.38;;;;;;;6.85;64.59;99275.22;5113294;28;20044;-71
2023/02/25 06:03:20;;;;;;;13.45;3.63;;;;;;;6.86;64.73;99271.31;5112318;28;20052;-70
2023/02/25 06:05:47;;;;;;;17.75;3.55;;;;;;;6.93;64.60;99270.88;5110589;28;20814;-70
2023/02/25 06:08:14;;;;;;;10.80;3.25;;;;;;;6.86;64.17;99271.31;5113469;28;20082;-70
2023/02/25 06:10:42;;;;;;;17.13;3.42;;;;;;;6.88;63.69;99279.31;5113548;28;20468;-71
2023/02/25 06:13:10;;;;;;;13.73;3.53;;;;;;;6.91;64.53;99279.50;5110897;28;20491;-70
2023/02/25 06:15:40;;;;;;;13.80;3.08;;;;;;;6.93;64.20;99286.63;5112508;28;20043;-70
2023/02/25 06:18:08;;;;;;;11.23;2.55;;;;;;;6.88;64.14;99288.41;5110070;28;20048;-71
2023/02/25 06:20:36;;;;;;;16.45;3.30;;;;;;;6.90;64.64;99285.34;5113343;28;20487;-70
2023/02/25 06:23:03;;;;;;;13.57;3.00;;;;;;;6.84;64.27;99292.13;5111747;28;20052;-72
2023/02/25 06:25:31;;;;;;;12.77;3.35;;;;;;;6.83;64.02;99296.88;5110639;28;20048;-70
2023/02/25 06:27:59;;;;;;;9.45;2.85;;;;;;;6.79;64.17;99300.59;5111593;28;20048;-70
2023/02/25 06:30:28;;;;;;;13.95;3.42;;;;;;;6.84;63.95;99309.56;5110774;28;20048;-71
2023/02/25 06:32:55;;;;;;;17.45;3.08;;;;;;;6.84;64.04;99305.97;5112258;28;20062;-70
2023/02/25 06:35:24;;;;;;;16.23;4.13;;;;;;;6.84;63.44;99311.50;5111538;28;20051;-70
2023/02/25 06:37:55;;;;;;;12.52;3.00;;;;;;;6.83;63.53;99305.16;5111041;28;20043;-70
2023/02/25 06:40:22;;;;;;;11.05;3.28;;;;;;;6.86;63.61;99304.53;5111814;28;20055;-70
2023/02/25 06:42:50;;;;;;;11.18;2.88;;;;;;;6.84;63.91;99294.91;5109079;28;20048;-70
2023/02/25 06:45:17;;;;;;;13.18;2.95;;;;;;;6.88;63.03;99306.97;5110429;28;20051;-71
2023/02/25 06:47:45;;;;;;;18.33;4.03;;;;;;;6.87;63.71;99308.94;5108988;28;20055;-70
2023/02/25 06:50:13;;;;;;;14.30;3.25;;;;;;;6.93;62.79;99319.84;5110259;28;20052;-70
2023/02/25 06:52:41;;;;;;;11.10;2.60;;;;;;;6.93;63.40;99314.31;5111561;28;20059;-70
2023/02/25 06:55:10;;;;;;;17.50;3.67;;;;;;;6.88;62.78;99318.84;5109907;28;20048;-70
2023/02/25 06:57:37;;;;;;;12.75;3.95;;;;;;;6.90;62.24;99332.38;5112623;28;20088;-70
2023/02/25 07:00:05;;;;;;;18.65;5.25;;;;;;;6.89;62.72;99339.88;5107702;28;20089;-71
2023/02/25 07:02:33;;;;;;;15.32;5.63;;;;;;;6.90;62.86;99327.66;5111401;28;20515;-70
2023/02/25 07:05:01;;;;;;;14.93;5.25;;;;;;;6.94;63.37;99333.38;5110985;28;20070;-70
2023/02/25 07:07:29;;;;;;;17.58;5.38;;;;;;;6.93;63.67;99322.63;5112644;28;20051;-71
2023/02/25 07:09:58;;;;;;;13.45;5.07;;;;;;;6.97;62.97;99326.38;5095441;28;20052;-71
2023/02/25 07:12:25;;;;;;;17.42;4.50;;;;;;;6.96;62.64;99342.19;5104296;28;20058;-70
2023/02/25 07:14:52;;;;;;;12.30;3.25;;;;;;;6.94;62.62;99336.16;5101713;28;20043;-70
2023/02/25 07:17:19;;;;;;;18.40;4.40;;;;;;;6.98;63.11;99342.69;5106048;28;20051;-70
2023/02/25 07:19:46;;;;;;;13.45;3.05;;;;;;;6.99;62.90;99335.19;5108902;28;20054;-69
2023/02/25 07:22:15;;;;;;;13.55;3.03;;;;;;;6.94;63.01;99352.75;5104514;28;20058;-70
2023/02/25 07:24:47;;;;;;;19.00;4.70;;;;;;;6.99;63.25;99351.81;5102505;28;20063;-70
2023/02/25 07:27:15;;;;;;;8.23;2.83;;;;;;;7.01;62.86;99346.78;5105650;28;20048;-70
2023/02/25 07:29:43;;;;;;;11.82;3.45;;;;;;;7.07;62.73;99348.25;5102954;28;20499;-71
2023/02/25 07:32:10;;;;;;;10.15;2.95;;;;;;;7.09;63.71;99366.19;5103950;28;20060;-70
2023/02/25 07:34:37;;;;;;;13.85;3.25;;;;;;;7.09;63.88;99365.38;5102296;28;20051;-70
2023/02/25 07:37:05;;;;;;;16.38;3.90;;;;;;;7.12;63.78;99364.75;5104733;28;20059;-69
2023/02/25 07:39:32;;;;;;;13.52;3.53;;;;;;;7.16;63.29;99362.16;5110001;28;20047;-70
2023/02/25 07:41:59;;;;;;;18.23;4.68;;;;;;;7.14;64.32;99364.41;5103059;28;20074;-70
2023/02/25 07:44:27;;;;;;;12.55;4.57;;;;;;;7.14;63.79;99376.34;5103149;28;20059;-72
2023/02/25 07:46:55;;;;;;;15.52;4.32;;;;;;;7.15;64.16;99379.91;5106453;28;20058;-70
2023/02/25 07:49:22;;;;;;;11.93;3.40;;;;;;;7.17;63.62;99367.38;5105255;28;20522;-70
2023/02/25 07:51:49;;;;;;;14.73;3.33;;;;;;;7.14;64.03;99373.56;5105160;28;20527;-72
2023/02/25 07:54:19;;;;;;;17.30;3.67;;;;;;;7.16;63.88;99374.06;5100710;28;20052;-70
2023/02/25 07:56:50;;;;;;;15.43;4.75;;;;;;;7.25;63.28;99383.22;5101855;28;20047;-70
2023/02/25 07:59:17;;;;;;;12.05;4.72;;;;;;;7.34;63.61;99380.47;5102645;28;20059;-70
2023/02/25 08:01:46;;;;;;;15.10;4.18;;;;;;;7.43;63.97;99377.72;5106635;28;20051;-70
2023/02/25 08:04:13;;;;;;;11.98;4.40;;;;;;;7.42;63.50;99378.88;5098457;28;20056;-72
2023/02/25 08:06:41;;;;;;;14.88;3.35;;;;;;;7.52;63.04;99392.47;5089311;28;20044;-69
2023/02/25 08:09:11;;;;;;;14.05;3.10;;;;;;;7.48;62.52;99395.03;5082850;28;20059;-71
2023/02/25 08:11:38;;;;;;;11.68;3.15;;;;;;;7.47;63.99;99395.34;5089841;28;20048;-69
2023/02/25 08:14:06;;;;;;;12.80;4.07;;;;;;;7.58;63.12;99396.72;5086640;28;20048;-70
2023/02/25 08:16:33;;;;;;;23.38;10.95;;;;;;;7.63;62.33;99388.25;5090066;28;20047;-69
2023/02/25 08:19:02;;;;;;;13.48;4.72;;;;;;;7.86;62.93;99399.22;5090036;28;20051;-68
2023/02/25 08:21:30;;;;;;;12.20;3.08;;;;;;;7.83;62.61;99403.47;5090681;28;20048;-69
2023/02/25 08:23:59;;;;;;;15.27;3.78;;;;;;;7.71;62.10;99406.03;5091863;28;20056;-69
2023/02/25 08:26:26;;;;;;;13.18;2.75;;;;;;;7.77;63.77;99415.84;5089920;28;20055;-71
2023/02/25 08:28:54;;;;;;;14.45;4.03;;;;;;;7.68;62.81;99418.56;5093771;28;20358;-69
2023/02/25 08:31:21;;;;;;;12.45;3.00;;;;;;;7.76;63.22;99413.38;5091687;28;20404;-69
2023/02/25 08:33:51;;;;;;;12.77;3.95;;;;;;;7.86;63.51;99413.91;5093196;28;20055;-69
2023/02/25 08:36:23;;;;;;;13.13;3.80;;;;;;;7.98;63.07;99410.53;5093108;28;20055;-68
2023/02/25 08:38:50;;;;;;;12.38;3.42;;;;;;;8.07;63.84;99414.13;5093399;28;20052;-69
2023/02/25 08:41:18;;;;;;;13.85;4.10;;;;;;;8.11;62.22;99417.88;5095165;28;20072;-69
2023/02/25 08:43:48;;;;;;;14.55;3.78;;;;;;;8.23;61.56;99419.19;5093599;28;20577;-70
2023/02/25 08:46:15;;;;;;;;;;;;;;;8.23;61.03;99410.84;5087909;28;20112;-71
2023/02/25 08:48:42;;;;;;;14.77;4.00;;;;;;;8.41;61.13;99417.28;5090939;28;19924;-70
2023/02/25 08:51:10;;;;;;;14.43;3.70;;;;;;;8.57;61.59;99425.91;5093008;28;20478;-69
2023/02/25 08:53:40;;;;;;;14.63;3.88;;;;;;;8.78;61.13;99426.91;5091484;28;20056;-71
2023/02/25 08:56:08;;;;;;;;;;;;;;;9.01;60.47;99418.34;5095044;28;20055;-72
2023/02/25 08:58:35;;;;;;;11.38;3.38;;;;;;;9.27;60.26;99427.44;5093996;28;19946;-71
2023/02/25 09:01:07;;;;;;;10.77;3.15;;;;;;;9.48;58.08;99423.97;5095281;28;20056;-71
2023/02/25 09:03:35;;;;;;;14.75;4.03;;;;;;;9.55;59.07;99429.81;5090622;28;20059;-70
2023/02/25 09:06:02;;;;;;;12.45;3.65;;;;;;;9.40;58.15;99430.34;5094177;28;20048;-71
2023/02/25 09:08:30;;;;;;;11.68;4.53;;;;;;;9.50;58.08;99430.00;5086186;28;20052;-71
2023/02/25 09:10:59;;;;;;;14.63;5.00;;;;;;;9.58;57.02;99431.94;5092459;28;20052;-72
2023/02/25 09:13:27;;;;;;;12.23;4.45;;;;;;;9.58;57.61;99434.72;5091526;28;20056;-72
2023/02/25 09:15:57;;;;;;;9.32;3.67;;;;;;;9.60;58.33;99439.94;5091968;28;20051;-72
2023/02/25 09:18:25;;;;;;;11.95;4.15;;;;;;;9.69;57.85;99438.75;5091423;28;20488;-72
2023/02/25 09:20:52;;;;;;;9.98;3.65;;;;;;;9.68;57.08;99439.06;5087525;28;20815;-71
2023/02/25 09:23:19;;;;;;;14.20;3.70;;;;;;;9.63;58.00;99440.06;5091618;28;20048;-71
2023/02/25 09:25:47;;;;;;;14.85;3.90;;;;;;;9.71;57.69;99441.19;5092305;28;20052;-71
2023/02/25 09:28:17;;;;;;;12.77;3.95;;;;;;;9.75;57.59;99445.75;5089607;28;20052;-71
2023/02/25 09:30:44;;;;;;;;;;;;;;;9.50;56.83;99446.69;5090603;28;20051;-70
2023/02/25 09:33:11;;;;;;;10.35;2.92;;;;;;;9.34;57.70;99465.84;5092969;28;19920;-71
2023/02/25 09:35:39;;;;;;;7.40;2.30;;;;;;;8.91;57.34;99487.00;5091372;28;20052;-70
2023/02/25 09:38:07;;;;;;;6.35;2.40;;;;;;;8.40;57.69;99494.13;5092334;28;20056;-70
2023/02/25 09:40:34;;;;;;;5.68;2.10;;;;;;;8.17;60.11;99478.72;5091522;28;20052;-70
2023/02/25 09:43:16;;;;;;;9.73;3.42;;;;;;;8.13;59.87;99478.56;5093178;28;20413;-70
2023/02/25 09:45:47;;;;;;;8.88;2.85;;;;;;;8.21;59.20;99479.72;5087800;28;20052;-70
2023/02/25 09:48:19;;;;;;;6.88;1.92;;;;;;;8.19;58.86;99480.06;5091279;28;20051;-70
2023/02/25 09:50:51;;;;;;;7.05;2.05;;;;;;;8.43;58.83;99485.19;5092103;28;20492;-70
2023/02/25 09:53:29;;;;;;;5.93;1.90;;;;;;;9.00;57.38;99488.94;5091138;28;20044;-71
2023/02/25 09:55:56;;;;;;;5.32;1.60;;;;;;;10.23;56.03;99488.22;5089225;28;20052;-71
2023/02/25 09:58:30;;;;;;;2.28;1.63;;;;;;;13.34;50.28;99483.25;5091742;28;20048;-70
2023/02/25 10:01:05;;;;;;;4.35;1.55;;;;;;;18.45;40.71;99476.88;5088757;28;20052;-70
2023/02/25 10:03:47;;;;;;;3.58;1.65;;;;;;;22.15;33.04;99477.56;5078734;28;20055;-71
2023/02/25 10:06:19;;;;;;;4.63;1.92;;;;;;;21.24;33.25;99476.47;5092528;28;20055;-71
2023/02/25 10:08:53;;;;;;;6.10;2.55;;;;;;;19.09;35.92;99476.47;5091190;28;20376;-70
2023/02/25 10:11:35;;;;;;;5.40;1.83;;;;;;;18.07;36.47;99498.72;5092683;28;20082;-70
2023/02/25 10:14:16;;;;;;;4.28;2.28;;;;;;;22.14;32.28;99492.16;5093022;28;20058;-70
2023/02/25 10:16:52;;;;;;;3.95;1.90;;;;;;;27.00;25.66;99475.44;5089525;28;20067;-70
2023/02/25 10:19:35;;;;;;;3.95;2.10;;;;;;;29.14;22.40;99466.91;5087936;28;20052;-71
2023/02/25 10:22:20;;;;;;;4.65;1.92;;;;;;;27.87;23.61;99460.22;5089439;28;20048;-71
2023/02/25 10:24:50;;;;;;;3.10;1.70;;;;;;;30.98;20.01;99474.63;5090350;28;20071;-70
2023/02/25 10:27:23;;;;;;;3.83;1.73;;;;;;;28.82;21.45;99481.59;5092733;28;20059;-70
2023/02/25 10:29:54;;;;;;;8.30;1.67;;;;;;;24.24;26.52;99527.88;5093170;28;20048;-72
2023/02/25 10:32:28;;;;;;;3.72;1.50;;;;;;;19.79;35.04;99541.28;5084541;28;20052;-70
2023/02/25 10:35:02;;;;;;;2.65;0.80;;;;;;;17.36;37.14;99539.00;5088506;28;20048;-70
2023/02/25 10:37:33;;;;;;;2.92;1.00;;;;;;;15.61;39.43;99522.97;5082701;28;20052;-71
2023/02/25 10:40:03;;;;;;;2.33;0.88;;;;;;;14.24;42.58;99530.38;5091208;28;20052;-71
2023/02/25 10:42:31;;;;;;;4.85;1.80;;;;;;;13.49;45.23;99534.00;5091806;28;20063;-71
2023/02/25 10:45:06;;;;;;;3.65;1.00;;;;;;;12.84;45.13;99542.44;5090059;28;20059;-70
2023/02/25 10:47:37;;;;;;;4.72;1.80;;;;;;;12.23;46.75;99544.13;5088746;28;20052;-70
2023/02/25 10:50:16;;;;;;;6.85;2.00;;;;;;;12.00;46.63;99549.34;5091605;28;20052;-70
2023/02/25 10:52:54;;;;;;;8.15;2.50;;;;;;;12.56;46.33;99555.19;5088186;28;20047;-70
2023/02/25 10:55:28;;;;;;;14.40;3.60;;;;;;;13.28;45.16;99557.34;5092884;28;20052;-69
2023/02/25 10:57:56;;;;;;;5.65;2.17;;;;;;;14.18;44.85;99559.81;5089468;28;20051;-69
2023/02/25 11:00:27;;;;;;;6.93;3.10;;;;;;;16.23;41.07;99539.72;5090067;28;20056;-70
2023/02/25 11:02:58;;;;;;;7.78;3.08;;;;;;;18.07;37.84;99543.03;5086540;28;20389;-70
2023/02/25 11:05:36;;;;;;;5.25;2.40;;;;;;;18.00;38.23;99547.38;5101923;28;20052;-70
2023/02/25 11:08:06;;;;;;;3.67;1.77;;;;;;;22.60;31.44;99542.88;5110983;28;20044;-69
2023/02/25 11:10:36;;;;;;;4.90;2.10;;;;;;;24.26;28.67;99531.09;5107445;28;20043;-70
2023/02/25 11:13:06;;;;;;;5.55;1.95;;;;;;;27.64;24.15;99530.00;5112035;28;20051;-70
2023/02/25 11:15:37;;;;;;;3.10;1.50;;;;;;;27.60;29.07;99535.00;5107268;28;20051;-73
2023/02/25 11:18:18;;;;;;;4.45;1.90;;;;;;;27.00;24.93;99535.47;5105379;28;20044;-72
2023/02/25 11:20:50;;;;;;;4.97;2.42;;;;;;;24.41;28.33;99533.72;5112118;28;20395;-71
2023/02/25 11:23:23;;;;;;;3.45;1.77;;;;;;;26.99;26.65;99528.16;5112867;28;20129;-71
2023/02/25 11:25:52;;;;;;;3.78;1.60;;;;;;;23.58;27.64;99526.41;5111281;28;20066;-72
2023/02/25 11:28:27;;;;;;;8.32;2.30;;;;;;;21.12;30.29;99535.59;5112920;28;20052;-71
2023/02/25 11:30:55;;;;;;;4.75;2.03;;;;;;;18.89;37.24;99534.41;5112152;28;20399;-73
2023/02/25 11:33:28;;;;;;;3.85;1.60;;;;;;;17.80;35.70;99552.38;5109009;28;20043;-71
2023/02/25 11:35:58;;;;;;;4.05;1.80;;;;;;;16.34;38.82;99537.13;5112618;28;20048;-70
2023/02/25 11:38:32;;;;;;;6.32;2.40;;;;;;;15.44;37.17;99549.50;5113047;28;20047;-69
2023/02/25 11:41:00;;;;;;;3.72;1.40;;;;;;;14.93;37.50;99561.66;5109674;28;20043;-69
2023/02/25 11:43:35;;;;;;;5.45;2.13;;;;;;;14.07;39.33;99578.31;5111954;28;20392;-69
2023/02/25 11:46:07;;;;;;;5.40;1.60;;;;;;;12.96;41.54;99576.78;5111000;28;20503;-73
2023/02/25 11:48:45;;;;;;;7.63;1.80;;;;;;;12.22;42.37;99575.19;5110784;28;20478;-72
2023/02/25 11:51:22;;;;;;;5.87;1.77;;;;;;;11.64;42.97;99586.31;5111849;28;20048;-71